Time;durP1;ratioP1;P1;durP2;ratioP2;P2;SDS_P1;SDS_P2;PMS_P1;PMS_P2;Temp;Humidity;BMP_temperature;BMP_pressure;BME280_temperature;BME280_humidity;BME280_pressure;Samples;Min_cycle;Max_cycle;Signal;HPM_P1;HPM_P2
2022/12/05 00:01:18;;;;;;;0.43;0.43;;;;;;;8.53;100.00;100602.69;5132043;27;20194;-68
2022/12/05 00:03:46;;;;;;;0.63;0.63;;;;;;;8.54;100.00;100601.81;5133203;27;20193;-68
2022/12/05 00:06:13;;;;;;;1.17;1.17;;;;;;;8.55;100.00;100608.63;5131735;27;20221;-68
2022/12/05 00:08:39;;;;;;;0.50;0.50;;;;;;;8.55;100.00;100603.53;5133507;27;20484;-68
2022/12/05 00:11:12;;;;;;;0.60;0.60;;;;;;;8.56;100.00;100600.13;5137497;27;20193;-68
2022/12/05 00:13:39;;;;;;;0.80;0.80;;;;;;;8.48;100.00;100587.34;5131500;27;20669;-68
2022/12/05 00:16:08;;;;;;;0.70;0.70;;;;;;;8.49;100.00;100591.63;5131239;27;20206;-68
2022/12/05 00:18:37;;;;;;;0.60;0.60;;;;;;;8.53;100.00;100593.28;5130784;27;20194;-69
2022/12/05 00:21:04;;;;;;;0.80;0.80;;;;;;;8.37;100.00;100566.94;5137329;27;20193;-68
2022/12/05 00:23:31;;;;;;;0.87;0.87;;;;;;;8.52;100.00;100599.28;5148271;27;20196;-68
2022/12/05 00:26:02;;;;;;;0.50;0.50;;;;;;;8.51;100.00;100597.56;5131163;27;20202;-68
2022/12/05 00:28:29;;;;;;;0.87;0.87;;;;;;;8.55;100.00;100603.53;5130497;27;20573;-68
2022/12/05 00:30:55;;;;;;;0.60;0.60;;;;;;;8.54;100.00;100596.72;5131459;27;20214;-68
2022/12/05 00:33:22;;;;;;;0.87;0.87;;;;;;;8.51;100.00;100592.47;5131168;27;20648;-68
2022/12/05 00:35:50;;;;;;;0.83;0.83;;;;;;;8.55;100.00;100598.41;5130977;27;20215;-68
2022/12/05 00:38:17;;;;;;;1.37;1.37;;;;;;;8.56;100.00;100600.13;5137786;27;20276;-68
2022/12/05 00:40:44;;;;;;;0.83;0.83;;;;;;;8.57;100.00;100601.81;5131279;27;20198;-69
2022/12/05 00:43:11;;;;;;;0.63;0.63;;;;;;;8.60;100.00;100605.22;5131090;27;20205;-68
2022/12/05 00:45:37;;;;;;;0.57;0.57;;;;;;;8.61;100.00;100604.38;5130311;27;20205;-68
2022/12/05 00:48:05;;;;;;;0.90;0.90;;;;;;;8.62;100.00;100605.22;5131143;27;20210;-68
2022/12/05 00:50:32;;;;;;;0.50;0.50;;;;;;;8.62;100.00;100605.22;5131174;27;20194;-68
2022/12/05 00:53:00;;;;;;;0.73;0.73;;;;;;;8.54;100.00;100596.72;5130842;27;20247;-69
2022/12/05 00:55:27;;;;;;;0.63;0.63;;;;;;;8.64;100.00;100613.72;5131276;27;20689;-68
2022/12/05 00:57:53;;;;;;;0.50;0.50;;;;;;;8.64;100.00;100603.50;5131005;27;20190;-68
2022/12/05 01:00:20;;;;;;;0.63;0.63;;;;;;;8.65;100.00;100600.94;5132145;27;20712;-68
2022/12/05 01:02:47;;;;;;;0.60;0.60;;;;;;;8.66;100.00;100600.06;5151796;27;20226;-68
2022/12/05 01:05:14;;;;;;;0.63;0.63;;;;;;;8.67;100.00;100600.94;5151207;27;20688;-68
2022/12/05 01:07:41;;;;;;;0.60;0.60;;;;;;;8.66;100.00;100602.63;5140905;27;20202;-69
2022/12/05 01:10:09;;;;;;;0.50;0.50;;;;;;;8.68;100.00;100605.19;5131089;27;20251;-68
2022/12/05 01:12:36;;;;;;;0.70;0.70;;;;;;;8.69;100.00;100604.34;5129822;27;21730;-69
2022/12/05 01:15:04;;;;;;;0.70;0.70;;;;;;;8.69;100.00;100596.69;5129061;27;20220;-68
2022/12/05 01:17:30;;;;;;;0.70;0.70;;;;;;;8.66;100.00;100591.56;5130571;27;20206;-68
2022/12/05 01:19:57;;;;;;;0.50;0.50;;;;;;;8.65;100.00;100589.88;5131002;27;20208;-68
2022/12/05 01:22:24;;;;;;;0.60;0.60;;;;;;;8.65;100.00;100589.88;5130808;27;20661;-68
2022/12/05 01:24:51;;;;;;;0.60;0.60;;;;;;;8.67;100.00;100590.69;5131000;27;20206;-68
2022/12/05 01:27:19;;;;;;;0.70;0.70;;;;;;;8.54;100.00;100571.16;5130852;27;20198;-68
2022/12/05 01:29:46;;;;;;;0.50;0.50;;;;;;;8.67;100.00;100590.69;5129925;27;20198;-68
2022/12/05 01:32:12;;;;;;;0.50;0.50;;;;;;;8.66;100.00;100591.56;5130730;27;20190;-68
2022/12/05 01:34:39;;;;;;;0.60;0.60;;;;;;;8.64;100.00;100594.13;5140722;27;20238;-68
2022/12/05 01:37:06;;;;;;;0.60;0.60;;;;;;;8.66;100.00;100587.28;5153902;27;20262;-68
2022/12/05 01:39:33;;;;;;;0.50;0.50;;;;;;;8.66;100.00;100584.72;5154958;27;20189;-68
2022/12/05 01:42:04;;;;;;;0.97;0.97;;;;;;;8.68;100.00;100579.63;5133849;27;20737;-68
2022/12/05 01:45:02;;;;;;;0.50;0.50;;;;;;;8.69;100.00;100577.06;5132928;27;20737;-68
2022/12/05 01:47:32;;;;;;;0.60;0.60;;;;;;;8.70;100.00;100583.03;5150449;27;20265;-68
2022/12/05 01:50:00;;;;;;;1.47;1.47;;;;;;;8.70;100.00;100567.69;5134002;27;20267;-68
2022/12/05 01:52:30;;;;;;;0.60;0.60;;;;;;;8.69;100.00;100561.72;5134862;27;20673;-68
2022/12/05 01:55:00;;;;;;;0.70;0.70;;;;;;;8.68;100.00;100565.16;5141087;27;20637;-69
2022/12/05 01:57:27;;;;;;;0.60;0.60;;;;;;;8.70;100.00;100567.69;5154744;27;20198;-68
2022/12/05 02:00:02;;;;;;;0.70;0.70;;;;;;;8.64;100.00;100563.44;5154489;27;20220;-68
2022/12/05 02:02:32;;;;;;;1.10;0.80;;;;;;;8.66;100.00;100566.84;5149808;27;20206;-68
2022/12/05 02:05:03;;;;;;;0.60;0.60;;;;;;;8.69;100.00;100571.13;5133661;27;20301;-68
2022/12/05 02:07:31;;;;;;;0.50;0.50;;;;;;;8.69;100.00;100568.56;5142405;27;20190;-69
2022/12/05 02:09:58;;;;;;;0.60;0.60;;;;;;;8.64;100.00;100557.47;5132568;27;20203;-68
2022/12/05 02:12:25;;;;;;;0.57;0.57;;;;;;;8.68;100.00;100560.03;5133912;27;20554;-68
2022/12/05 02:15:06;;;;;;;0.50;0.50;;;;;;;8.70;100.00;100563.44;5133549;27;20221;-68
2022/12/05 02:17:44;;;;;;;0.60;0.60;;;;;;;8.71;100.00;100564.28;5133544;27;20198;-69
2022/12/05 02:20:32;;;;;;;0.50;0.50;;;;;;;8.66;100.00;100558.34;5133434;27;20251;-68
2022/12/05 02:23:27;;;;;;;0.57;0.57;;;;;;;8.63;100.00;100540.44;5133750;27;20661;-68
2022/12/05 02:26:23;;;;;;;0.50;0.50;;;;;;;8.72;100.00;100553.22;5133358;27;20733;-68
2022/12/05 02:29:20;;;;;;;0.40;0.40;;;;;;;8.73;100.00;100562.56;5133543;27;20194;-68
2022/12/05 02:31:53;;;;;;;0.70;0.70;;;;;;;8.69;100.00;100564.28;5132758;27;20258;-68
2022/12/05 02:34:26;;;;;;;0.50;0.50;;;;;;;8.69;100.00;100555.78;5132988;27;20558;-68
2022/12/05 02:37:00;;;;;;;0.60;0.60;;;;;;;8.68;100.00;100554.91;5133324;27;20213;-68
2022/12/05 02:39:45;;;;;;;0.53;0.53;;;;;;;8.63;100.00;100550.66;5131361;27;20193;-68
2022/12/05 02:42:17;;;;;;;0.67;0.67;;;;;;;8.64;100.00;100553.22;5132819;27;20197;-68
2022/12/05 02:44:47;;;;;;;0.60;0.60;;;;;;;8.64;100.00;100557.47;5133322;27;20199;-68
2022/12/05 02:47:20;;;;;;;0.60;0.60;;;;;;;8.65;100.00;100551.53;5132440;27;20688;-68
2022/12/05 02:49:48;;;;;;;0.67;0.67;;;;;;;8.62;100.00;100548.97;5141789;27;20202;-68
2022/12/05 02:52:17;;;;;;;0.60;0.60;;;;;;;8.62;100.00;100544.72;5132035;27;20198;-68
2022/12/05 02:54:48;;;;;;;0.50;0.50;;;;;;;8.62;100.00;100551.53;5132864;27;20210;-69
2022/12/05 02:57:16;;;;;;;0.60;0.60;;;;;;;8.64;100.00;100547.25;5132812;27;20190;-68
2022/12/05 02:59:43;;;;;;;0.77;0.77;;;;;;;8.64;100.00;100550.66;5132335;27;20206;-68
2022/12/05 03:02:25;;;;;;;0.63;0.63;;;;;;;8.65;100.00;100552.38;5133147;27;20205;-68
2022/12/05 03:04:52;;;;;;;0.47;0.47;;;;;;;8.65;100.00;100548.97;5144938;27;20220;-68
2022/12/05 03:07:22;;;;;;;0.50;0.50;;;;;;;8.62;100.00;100554.94;5135764;27;20202;-68
2022/12/05 03:09:55;;;;;;;0.50;0.50;;;;;;;8.64;100.00;100552.38;5132379;27;20281;-68
2022/12/05 03:12:26;;;;;;;0.43;0.43;;;;;;;8.52;100.00;100537.09;5132247;27;20619;-68
2022/12/05 03:14:57;;;;;;;0.47;0.47;;;;;;;8.63;100.00;100568.56;5132416;27;20214;-68
2022/12/05 03:17:31;;;;;;;0.53;0.53;;;;;;;8.62;100.00;100561.75;5132261;27;20190;-68
2022/12/05 03:20:04;;;;;;;0.80;0.80;;;;;;;8.62;100.00;100569.44;5132483;27;20666;-68
2022/12/05 03:22:35;;;;;;;1.10;1.10;;;;;;;8.49;100.00;100542.22;5132215;27;20290;-68
2022/12/05 03:25:03;;;;;;;0.40;0.40;;;;;;;8.65;100.00;100569.41;5132464;27;20205;-68
2022/12/05 03:27:40;;;;;;;0.50;0.50;;;;;;;8.66;100.00;100566.00;5127911;27;20205;-68
2022/12/05 03:30:10;;;;;;;0.50;0.50;;;;;;;8.65;100.00;100564.31;5132443;27;20198;-68
2022/12/05 03:32:43;;;;;;;0.53;0.53;;;;;;;8.67;100.00;100562.59;5141572;27;20197;-68
2022/12/05 03:35:17;;;;;;;0.50;0.50;;;;;;;8.68;100.00;100559.19;5133520;27;20213;-69
2022/12/05 03:37:51;;;;;;;0.63;0.63;;;;;;;8.68;100.00;100561.75;5131009;27;20193;-68
2022/12/05 03:40:27;;;;;;;0.70;0.70;;;;;;;8.70;100.00;100567.69;5127294;27;20197;-68
2022/12/05 03:42:58;;;;;;;0.60;0.60;;;;;;;8.69;100.00;100566.00;5131091;27;20212;-68
2022/12/05 03:45:33;;;;;;;0.70;0.70;;;;;;;8.67;100.00;100554.91;5145876;27;20569;-68
2022/12/05 03:48:07;;;;;;;0.50;0.50;;;;;;;8.56;100.00;100547.31;5131699;27;20572;-68
2022/12/05 03:50:37;;;;;;;0.57;0.57;;;;;;;8.68;100.00;100564.28;5131188;27;20190;-69
2022/12/05 03:53:08;;;;;;;0.90;0.90;;;;;;;8.68;100.00;100569.41;5131870;27;20198;-68
2022/12/05 03:55:39;;;;;;;0.60;0.60;;;;;;;8.71;100.00;100564.28;5138814;27;20217;-68
2022/12/05 03:58:10;;;;;;;0.50;0.50;;;;;;;8.58;100.00;100549.84;5130587;27;20204;-68
2022/12/05 04:00:42;;;;;;;0.80;0.80;;;;;;;8.68;100.00;100564.28;5133446;27;20201;-69
2022/12/05 04:03:14;;;;;;;0.73;0.73;;;;;;;8.66;100.00;100561.72;5137606;27;20201;-68
2022/12/05 04:05:46;;;;;;;0.57;0.57;;;;;;;8.70;100.00;100552.34;5131489;27;20249;-69
2022/12/05 04:08:20;;;;;;;1.10;1.10;;;;;;;8.67;100.00;100557.47;5131695;27;20196;-68
2022/12/05 04:10:50;;;;;;;0.60;0.60;;;;;;;8.55;100.00;100537.06;5137713;27;20198;-68
2022/12/05 04:13:22;;;;;;;0.57;0.57;;;;;;;8.57;100.00;100535.34;5131553;27;20209;-68
2022/12/05 04:18:46;;;;;;;0.60;0.60;;;;;;;8.51;100.00;100540.50;5129956;27;20217;-68
2022/12/05 04:26:48;;;;;;;0.53;0.53;;;;;;;8.64;100.00;100554.94;5140583;27;20500;-68
2022/12/05 04:29:24;;;;;;;1.13;1.13;;;;;;;8.63;100.00;100560.88;5131119;27;20273;-68
2022/12/05 04:31:55;;;;;;;0.93;0.93;;;;;;;8.62;100.00;100559.22;5131733;27;20197;-68
2022/12/05 04:34:27;;;;;;;0.50;0.50;;;;;;;8.54;100.00;100541.34;5130549;27;20590;-68
2022/12/05 04:36:58;;;;;;;0.50;0.50;;;;;;;8.57;100.00;100555.81;5131494;27;20213;-68
2022/12/05 04:39:30;;;;;;;0.60;0.60;;;;;;;8.57;100.00;100545.56;5129910;27;20210;-68
2022/12/05 04:42:01;;;;;;;0.40;0.40;;;;;;;8.66;100.00;100556.63;5131552;27;20254;-68
2022/12/05 04:44:33;;;;;;;0.70;0.70;;;;;;;8.70;100.00;100560.88;5134127;27;20611;-68
2022/12/05 04:47:03;;;;;;;0.80;0.80;;;;;;;8.69;100.00;100560.88;5130910;27;20613;-69
2022/12/05 04:49:35;;;;;;;0.60;0.60;;;;;;;8.69;100.00;100566.00;5136584;27;20189;-68
2022/12/05 04:52:04;;;;;;;0.60;0.60;;;;;;;8.67;100.00;100562.59;5133166;27;20204;-68
2022/12/05 04:54:34;;;;;;;0.50;0.50;;;;;;;8.68;100.00;100560.03;5140677;27;20195;-68
2022/12/05 04:57:08;;;;;;;0.70;0.70;;;;;;;8.70;100.00;100562.56;5136266;27;20217;-68
2022/12/05 04:59:35;;;;;;;0.50;0.50;;;;;;;8.66;100.00;100561.72;5130947;27;20213;-68
2022/12/05 05:02:07;;;;;;;0.50;0.50;;;;;;;8.61;100.00;100557.50;5130738;27;20673;-69
2022/12/05 05:04:38;;;;;;;0.60;0.60;;;;;;;8.63;100.00;100568.56;5130945;27;20721;-68
2022/12/05 05:07:07;;;;;;;0.80;0.80;;;;;;;8.63;100.00;100560.88;5141039;27;20194;-68
2022/12/05 05:09:35;;;;;;;0.57;0.57;;;;;;;8.57;100.00;100566.88;5130933;27;20197;-68
2022/12/05 05:12:02;;;;;;;0.50;0.50;;;;;;;8.58;100.00;100565.19;5133211;27;20272;-68
2022/12/05 05:14:29;;;;;;;0.60;0.60;;;;;;;8.56;100.00;100561.78;5143988;27;20198;-68
2022/12/05 05:16:56;;;;;;;0.50;0.50;;;;;;;8.38;100.00;100545.66;5139171;27;20290;-68
2022/12/05 05:19:24;;;;;;;0.50;0.50;;;;;;;8.45;100.00;100561.81;5137631;27;20247;-68
2022/12/05 05:21:53;;;;;;;1.00;1.00;;;;;;;8.35;100.00;100545.66;5147397;27;20185;-69
2022/12/05 05:24:22;;;;;;;0.50;0.50;;;;;;;8.31;100.00;100551.63;5135570;27;20202;-69
2022/12/05 05:26:49;;;;;;;0.60;0.60;;;;;;;8.29;100.00;100550.78;5133193;27;20297;-69
2022/12/05 05:29:16;;;;;;;0.80;0.80;;;;;;;8.19;100.00;100543.97;5133688;27;20221;-68
2022/12/05 05:31:43;;;;;;;0.60;0.60;;;;;;;8.17;100.00;100545.69;5133215;27;20246;-68
2022/12/05 05:34:11;;;;;;;0.60;0.60;;;;;;;8.29;100.00;100555.06;5134006;27;20194;-68
2022/12/05 05:36:39;;;;;;;0.50;0.50;;;;;;;8.29;100.00;100563.56;5134293;27;20217;-68
2022/12/05 05:39:13;;;;;;;0.57;0.57;;;;;;;8.34;100.00;100564.38;5134636;27;20198;-68
2022/12/05 05:41:40;;;;;;;0.60;0.60;;;;;;;8.35;100.00;100561.00;5136230;27;20202;-68
2022/12/05 05:44:07;;;;;;;0.60;0.60;;;;;;;8.36;100.00;100567.81;5133012;27;20757;-68
2022/12/05 05:46:36;;;;;;;0.50;0.50;;;;;;;8.37;100.00;100569.50;5134283;27;20205;-69
2022/12/05 05:49:03;;;;;;;1.23;1.10;;;;;;;8.38;100.00;100571.19;5146166;27;20324;-68
2022/12/05 05:51:30;;;;;;;0.57;0.57;;;;;;;8.40;100.00;100569.47;5126233;27;20221;-68
2022/12/05 05:53:57;;;;;;;0.60;0.60;;;;;;;8.44;100.00;100571.19;5126414;27;20267;-68
2022/12/05 05:56:26;;;;;;;0.60;0.60;;;;;;;8.43;100.00;100574.59;5133734;27;20214;-69
2022/12/05 05:58:58;;;;;;;0.53;0.53;;;;;;;8.38;100.00;100565.25;5132183;27;20198;-68
2022/12/05 06:01:24;;;;;;;0.60;0.60;;;;;;;8.44;100.00;100578.00;5133350;27;20194;-68
2022/12/05 06:03:51;;;;;;;1.17;1.17;;;;;;;8.39;100.00;100564.41;5133189;27;20651;-68
2022/12/05 06:06:19;;;;;;;0.67;0.67;;;;;;;8.47;100.00;100579.69;5133778;27;20770;-68
2022/12/05 06:08:47;;;;;;;0.77;0.77;;;;;;;8.45;100.00;100574.59;5143131;27;20204;-69
2022/12/05 06:11:16;;;;;;;0.70;0.70;;;;;;;8.50;100.00;100579.72;5133329;27;20581;-68
2022/12/05 06:13:45;;;;;;;0.50;0.50;;;;;;;8.51;100.00;100586.50;5132431;27;20581;-68
2022/12/05 06:16:14;;;;;;;0.40;0.40;;;;;;;8.53;100.00;100595.03;5133215;27;20210;-69
2022/12/05 06:18:42;;;;;;;0.67;0.67;;;;;;;8.56;100.00;100590.75;5133925;27;20202;-69
2022/12/05 06:21:10;;;;;;;0.60;0.60;;;;;;;8.58;100.00;100590.75;5133186;27;20206;-68
2022/12/05 06:23:39;;;;;;;0.53;0.53;;;;;;;8.61;100.00;100603.50;5132589;27;20202;-68
2022/12/05 06:26:09;;;;;;;0.70;0.70;;;;;;;8.62;100.00;100605.22;5132248;27;20190;-69
2022/12/05 06:28:38;;;;;;;0.60;0.60;;;;;;;8.65;100.00;100607.75;5130671;27;20206;-68
2022/12/05 06:31:09;;;;;;;1.07;1.07;;;;;;;8.66;100.00;100607.75;5129911;27;20201;-68
2022/12/05 06:33:36;;;;;;;6.30;1.17;;;;;;;8.67;100.00;100613.72;5133042;27;20221;-68
2022/12/05 06:36:05;;;;;;;0.60;0.60;;;;;;;8.70;100.00;100613.69;5153165;27;20277;-68
2022/12/05 06:38:32;;;;;;;0.47;0.47;;;;;;;8.71;100.00;100616.25;5139829;27;20205;-68
2022/12/05 06:40:59;;;;;;;0.87;0.87;;;;;;;8.72;100.00;100625.66;5142112;27;20549;-68
2022/12/05 06:43:26;;;;;;;0.57;0.57;;;;;;;8.64;100.00;100614.56;5142530;27;20670;-69
2022/12/05 06:45:52;;;;;;;0.70;0.70;;;;;;;8.70;100.00;100631.59;5133224;27;20190;-68
2022/12/05 06:48:20;;;;;;;0.50;0.50;;;;;;;8.58;100.00;100598.41;5132572;27;20213;-68
2022/12/05 06:50:52;;;;;;;0.70;0.70;;;;;;;8.79;100.00;100631.56;5129564;27;20194;-68
2022/12/05 06:53:19;;;;;;;0.93;0.93;;;;;;;8.76;100.00;100611.13;5132580;27;20666;-68
2022/12/05 06:55:56;;;;;;;0.70;0.70;;;;;;;8.87;100.00;100634.94;5132474;27;20267;-67
2022/12/05 06:58:23;;;;;;;0.50;0.50;;;;;;;8.90;100.00;100634.94;5129009;27;20202;-67
2022/12/05 07:03:36;;;;;;;0.50;0.50;;;;;;;8.81;100.00;100624.75;5132139;27;20208;-67
2022/12/05 07:06:04;;;;;;;0.40;0.40;;;;;;;8.84;100.00;100642.63;5129330;27;20697;-67
2022/12/05 07:08:32;;;;;;;0.60;0.60;;;;;;;8.93;100.00;100634.94;5131579;27;20230;-67
2022/12/05 07:10:59;;;;;;;0.43;0.43;;;;;;;8.98;100.00;100638.34;5131299;27;20205;-67
2022/12/05 07:13:26;;;;;;;0.40;0.40;;;;;;;8.93;100.00;100638.34;5131515;27;20198;-69
2022/12/05 07:15:53;;;;;;;0.50;0.50;;;;;;;8.98;100.00;100648.56;5126834;27;20218;-68
2022/12/05 07:18:19;;;;;;;1.30;1.30;;;;;;;8.86;100.00;100646.03;5128704;27;20263;-70
2022/12/05 07:20:56;;;;;;;0.50;0.50;;;;;;;8.80;100.00;100648.63;5131382;27;20209;-69
2022/12/05 07:23:23;;;;;;;0.50;0.50;;;;;;;8.73;100.00;100646.91;5131882;27;20205;-70
2022/12/05 07:25:50;;;;;;;0.60;0.60;;;;;;;8.74;100.00;100646.06;5132047;27;20198;-70
2022/12/05 07:28:16;;;;;;;0.50;0.50;;;;;;;8.73;100.00;100646.91;5127842;27;20205;-70
2022/12/05 07:30:43;;;;;;;0.70;0.70;;;;;;;8.81;100.00;100650.31;5128588;27;20228;-70
2022/12/05 07:33:10;;;;;;;0.50;0.50;;;;;;;8.89;100.00;100649.44;5128957;27;20213;-68
2022/12/05 07:35:37;;;;;;;0.70;0.70;;;;;;;9.03;100.00;100648.53;5130038;27;20668;-69
2022/12/05 07:38:05;;;;;;;0.90;0.90;;;;;;;9.04;100.00;100635.75;5131560;27;20201;-70
2022/12/05 07:40:32;;;;;;;0.73;0.73;;;;;;;9.13;100.00;100651.06;5130166;27;20198;-70
2022/12/05 07:42:59;;;;;;;0.70;0.70;;;;;;;9.12;100.00;100654.47;5130267;27;20227;-70
2022/12/05 07:45:26;;;;;;;0.67;0.67;;;;;;;9.15;100.00;100654.44;5126415;27;20198;-68
2022/12/05 07:47:52;;;;;;;0.40;0.40;;;;;;;9.20;100.00;100651.88;5129829;27;20202;-69
2022/12/05 07:50:19;;;;;;;0.53;0.53;;;;;;;9.27;100.00;100648.44;5134786;27;20208;-68
2022/12/05 07:52:46;;;;;;;0.60;0.60;;;;;;;9.21;100.00;100648.47;5125259;27;20202;-69
2022/12/05 07:55:14;;;;;;;0.60;0.60;;;;;;;9.09;100.00;100646.78;5128577;27;20269;-69
2022/12/05 07:57:41;;;;;;;0.50;0.50;;;;;;;9.18;100.00;100649.31;5130318;27;20225;-69
2022/12/05 08:00:08;;;;;;;0.60;0.60;;;;;;;9.14;100.00;100650.19;5128875;27;20232;-69
2022/12/05 08:02:35;;;;;;;0.50;0.50;;;;;;;9.13;100.00;100645.09;5127474;27;20194;-71
2022/12/05 08:05:02;;;;;;;0.50;0.50;;;;;;;9.04;100.00;100640.00;5132054;27;20708;-72
2022/12/05 08:07:29;;;;;;;0.50;0.50;;;;;;;9.18;100.00;100659.53;5124305;27;20198;-71
2022/12/05 08:09:56;;;;;;;0.60;0.60;;;;;;;9.14;100.00;100652.75;5132233;27;20210;-71
2022/12/05 08:12:24;;;;;;;0.50;0.50;;;;;;;9.28;100.00;100657.78;5129730;27;20206;-71
2022/12/05 08:14:50;;;;;;;0.50;0.50;;;;;;;9.28;100.00;100655.22;5142016;27;20201;-71
2022/12/05 08:17:17;;;;;;;0.60;0.60;;;;;;;9.28;100.00;100663.75;5131634;27;20217;-71
2022/12/05 08:19:44;;;;;;;0.50;0.50;;;;;;;9.26;100.00;100657.81;5128587;27;20198;-71
2022/12/05 08:22:11;;;;;;;0.70;0.70;;;;;;;9.36;100.00;100669.72;5129791;27;20202;-71
2022/12/05 08:24:38;;;;;;;0.93;0.93;;;;;;;9.42;100.00;100654.31;5131889;27;20207;-71
2022/12/05 08:27:05;;;;;;;0.47;0.47;;;;;;;9.52;100.00;100651.69;5133534;27;20194;-68
2022/12/05 08:29:33;;;;;;;0.90;0.90;;;;;;;9.60;100.00;100647.38;5134162;27;20237;-69
2022/12/05 08:32:00;;;;;;;0.50;0.50;;;;;;;9.62;100.00;100645.66;5131217;27;20212;-69
2022/12/05 08:34:27;;;;;;;0.50;0.50;;;;;;;9.72;100.00;100647.31;5129445;27;20256;-70
2022/12/05 08:36:53;;;;;;;0.70;0.70;;;;;;;9.71;100.00;100640.47;5129822;27;20707;-69
2022/12/05 08:39:20;;;;;;;0.73;0.73;;;;;;;9.67;100.00;100631.13;5131703;27;20201;-70
2022/12/05 08:41:48;;;;;;;7.00;0.97;;;;;;;9.78;100.00;100637.03;5138538;27;20210;-69
2022/12/05 08:44:17;;;;;;;0.60;0.60;;;;;;;9.82;100.00;100641.28;5131534;27;20581;-69
2022/12/05 08:46:46;;;;;;;0.60;0.60;;;;;;;9.78;100.00;100642.16;5135556;27;20242;-69
2022/12/05 08:49:13;;;;;;;0.57;0.57;;;;;;;9.83;100.00;100628.44;5135696;27;20270;-69
2022/12/05 08:51:41;;;;;;;0.63;0.63;;;;;;;9.89;100.00;100625.81;5135811;27;20205;-69
2022/12/05 08:54:08;;;;;;;0.50;0.50;;;;;;;9.99;100.00;100626.59;5135123;27;20685;-69
2022/12/05 08:56:35;;;;;;;0.50;0.50;;;;;;;9.87;100.00;100612.19;5135804;27;20214;-70
2022/12/05 08:59:02;;;;;;;0.70;0.70;;;;;;;9.94;100.00;100628.38;5152784;27;20201;-70
2022/12/05 09:01:30;;;;;;;0.60;0.60;;;;;;;9.83;100.00;100620.75;5135481;27;20201;-69
2022/12/05 09:04:00;;;;;;;1.30;1.30;;;;;;;9.73;100.00;100605.47;5135246;27;20202;-69
2022/12/05 09:06:28;;;;;;;0.80;0.80;;;;;;;9.87;100.00;100608.78;5134967;27;20271;-69
2022/12/05 09:08:57;;;;;;;2.03;1.93;;;;;;;9.85;100.00;100603.69;5135492;27;20646;-69
2022/12/05 09:11:26;;;;;;;0.47;0.47;;;;;;;9.79;100.00;100595.19;5144392;27;20240;-70
2022/12/05 09:13:54;;;;;;;0.77;0.77;;;;;;;10.09;100.00;100607.72;5143866;27;20198;-73
2022/12/05 09:16:23;;;;;;;0.77;0.77;;;;;;;10.29;100.00;100595.63;5148735;27;20291;-75
2022/12/05 09:18:51;;;;;;;1.07;0.77;;;;;;;10.48;100.00;100602.25;5134145;27;20567;-72
2022/12/05 09:21:23;;;;;;;1.77;0.93;;;;;;;10.66;100.00;100595.22;5135470;27;20198;-73
2022/12/05 09:23:50;;;;;;;0.60;0.60;;;;;;;10.76;100.00;100599.38;5145005;27;20185;-71
2022/12/05 09:26:19;;;;;;;0.77;0.77;;;;;;;10.67;100.00;100596.91;5149591;27;20259;-70
2022/12/05 09:28:46;;;;;;;0.40;0.40;;;;;;;10.57;100.00;100585.06;5147990;27;20193;-68
2022/12/05 09:31:16;;;;;;;0.50;0.50;;;;;;;10.64;100.00;100587.53;5146503;27;20198;-67
2022/12/05 09:33:43;;;;;;;0.60;0.60;;;;;;;10.49;100.00;100591.13;5142396;27;20228;-68
2022/12/05 09:36:13;;;;;;;0.87;0.87;;;;;;;10.46;100.00;100587.75;5142985;27;20194;-69
2022/12/05 09:38:42;;;;;;;0.50;0.50;;;;;;;10.42;100.00;100597.19;5150672;27;20193;-68
2022/12/05 09:41:20;;;;;;;0.40;0.40;;;;;;;10.42;100.00;100586.94;5140456;27;20237;-68
2022/12/05 09:43:55;;;;;;;0.50;0.50;;;;;;;10.48;100.00;100583.44;5141693;27;20205;-67
2022/12/05 09:46:35;;;;;;;0.87;0.87;;;;;;;10.51;100.00;100586.84;5133068;27;20197;-67
2022/12/05 09:49:03;;;;;;;0.53;0.53;;;;;;;10.45;100.00;100584.34;5137164;27;20251;-69
2022/12/05 09:51:31;;;;;;;0.50;0.50;;;;;;;10.36;100.00;100566.50;5132459;27;20206;-69
2022/12/05 09:53:59;;;;;;;1.77;1.77;;;;;;;10.39;100.00;100581.84;5124835;27;20209;-68
2022/12/05 09:56:29;;;;;;;0.50;0.50;;;;;;;10.44;100.00;100574.09;5123567;27;20226;-68
2022/12/05 09:58:59;;;;;;;0.53;0.53;;;;;;;10.50;100.00;100577.44;5122124;27;20711;-68
2022/12/05 10:01:36;;;;;;;0.40;0.40;;;;;;;10.57;100.00;100574.78;5123664;27;20297;-68
2022/12/05 10:04:21;;;;;;;0.43;0.43;;;;;;;10.55;100.00;100567.13;5126256;27;20722;-68
2022/12/05 10:06:56;;;;;;;0.67;0.67;;;;;;;10.62;100.00;100573.03;5129827;27;20209;-68
2022/12/05 10:09:39;;;;;;;0.97;0.93;;;;;;;10.66;100.00;100565.31;5129103;27;20205;-68
2022/12/05 10:12:14;;;;;;;0.70;0.70;;;;;;;10.67;100.00;100563.56;5132947;27;20315;-68
2022/12/05 10:14:51;;;;;;;0.40;0.40;;;;;;;10.64;100.00;100554.19;5136132;27;20649;-68
2022/12/05 10:17:26;;;;;;;0.40;0.40;;;;;;;10.65;100.00;100563.59;5135517;27;20225;-68
2022/12/05 10:19:57;;;;;;;0.50;0.50;;;;;;;10.67;100.00;100567.00;5139198;27;20203;-68
2022/12/05 10:22:29;;;;;;;0.50;0.50;;;;;;;10.70;100.00;100566.09;5137099;27;20198;-68
2022/12/05 10:25:02;;;;;;;0.60;0.60;;;;;;;10.62;100.00;100578.19;5139435;27;20209;-68
2022/12/05 10:27:36;;;;;;;1.30;1.17;;;;;;;10.68;100.00;100567.84;5149565;27;20288;-68
2022/12/05 10:30:05;;;;;;;0.40;0.40;;;;;;;10.74;100.00;100567.75;5141004;27;20198;-68
2022/12/05 10:32:37;;;;;;;0.40;0.40;;;;;;;10.74;100.00;100562.63;5128324;27;20205;-68
2022/12/05 10:35:15;;;;;;;0.43;0.43;;;;;;;10.81;100.00;100554.84;5139471;27;20557;-68
2022/12/05 10:37:45;;;;;;;0.40;0.40;;;;;;;10.88;100.00;100546.22;5135534;27;20273;-68
2022/12/05 10:40:14;;;;;;;0.60;0.60;;;;;;;10.96;100.00;100543.53;5134815;27;20680;-68
2022/12/05 10:42:42;;;;;;;0.60;0.60;;;;;;;11.03;100.00;100542.59;5121184;27;20198;-68
2022/12/05 10:45:15;;;;;;;1.50;1.37;;;;;;;10.98;100.00;100537.53;5124613;27;20207;-68
2022/12/05 10:47:42;;;;;;;0.83;0.83;;;;;;;11.01;99.76;100534.06;5129292;27;20535;-68
2022/12/05 10:50:20;;;;;;;0.50;0.50;;;;;;;11.05;99.40;100543.41;5132000;27;20202;-68
2022/12/05 10:52:48;;;;;;;1.27;1.27;;;;;;;11.05;99.21;100538.25;5135078;27;20554;-67
2022/12/05 10:55:18;;;;;;;0.57;0.57;;;;;;;11.11;99.92;100533.06;5132289;27;20250;-67
2022/12/05 10:57:50;;;;;;;0.60;0.60;;;;;;;11.17;100.00;100517.59;5130501;27;20222;-68
2022/12/05 11:00:21;;;;;;;0.60;0.60;;;;;;;11.20;100.00;100525.22;5136516;27;20198;-67
2022/12/05 11:02:49;;;;;;;0.40;0.40;;;;;;;11.27;100.00;100518.28;5135594;27;20247;-67
2022/12/05 11:05:17;;;;;;;0.40;0.40;;;;;;;11.26;99.44;100511.44;5134625;27;20735;-67
2022/12/05 11:07:48;;;;;;;0.40;0.40;;;;;;;11.18;98.79;100495.34;5132592;27;20292;-67
2022/12/05 11:10:27;;;;;;;0.50;0.50;;;;;;;11.19;99.62;100504.72;5143546;27;20202;-67
2022/12/05 11:12:57;;;;;;;0.70;0.70;;;;;;;11.10;99.22;100490.31;5145316;27;20202;-67
2022/12/05 11:15:26;;;;;;;0.50;0.50;;;;;;;11.18;98.07;100498.72;5134633;27;20202;-67
2022/12/05 11:17:54;;;;;;;0.50;0.50;;;;;;;11.18;97.76;100498.72;5139217;27;20685;-67
2022/12/05 11:20:38;;;;;;;0.40;0.40;;;;;;;11.21;98.53;100496.09;5135207;27;20456;-67
2022/12/05 11:23:23;;;;;;;0.43;0.43;;;;;;;11.26;97.76;100502.03;5128402;27;20658;-68
2022/12/05 11:25:52;;;;;;;0.60;0.60;;;;;;;11.24;96.66;100496.09;5137707;27;20233;-67
2022/12/05 11:28:34;;;;;;;0.50;0.50;;;;;;;11.24;96.38;100493.53;5139904;27;20201;-67
2022/12/05 11:31:03;;;;;;;0.60;0.60;;;;;;;11.23;95.86;100496.94;5134807;27;20200;-67
2022/12/05 11:33:32;;;;;;;0.50;0.50;;;;;;;11.23;96.60;100496.94;5138484;27;20194;-67
2022/12/05 11:36:04;;;;;;;0.60;0.60;;;;;;;11.16;97.04;100479.09;5144212;27;20193;-67
2022/12/05 11:38:33;;;;;;;0.63;0.63;;;;;;;11.26;98.13;100480.66;5141806;27;20271;-67
2022/12/05 11:41:15;;;;;;;0.50;0.50;;;;;;;11.28;98.43;100484.88;5136355;27;20231;-67
2022/12/05 11:43:56;;;;;;;0.60;0.60;;;;;;;11.22;96.97;100468.72;5138726;27;20705;-68
2022/12/05 11:46:34;;;;;;;0.47;0.47;;;;;;;11.27;96.61;100483.22;5140689;27;20650;-68
2022/12/05 11:49:17;;;;;;;0.70;0.70;;;;;;;11.25;97.32;100479.78;5141090;27;20246;-68